FKS weather

Frankfort Dow Memorial Field
Frankfort, Michigan, United States

Public forecast

Using degrees Fahrenheit for public forecast. Weather courtesy of forecast.io.

Current aviation weather report (METAR) for Frankfort Dow Memorial Field

Retrieved 2019/10/14 11:37 UTC (8 minutes ago):

KFKS 141137Z AUTO 30009KT 10SM SCT022 BKN028 BKN033 07/01 A2990 RMK AO2 T00690010

Closest aviation forecast (TAF) to Frankfort Dow Memorial Field

Closest forecast is Manistee Co Blacker Airport, 21.3 nm (39.4 km) S. Retrieved 2019/10/14 06:24 UTC (5 hours ago):

TAF KMBL 140521Z 1406/1506 27012G22KT P6SM BKN028 FM141000 28012KT P6SM BKN018 FM141900 26011KT P6SM BKN090 FM150100 23005KT P6SM SCT150